Time;durP1;ratioP1;P1;durP2;ratioP2;P2;SDS_P1;SDS_P2;PMS_P1;PMS_P2;Temp;Humidity;BMP_temperature;BMP_pressure;BME280_temperature;BME280_humidity;BME280_pressure;Samples;Min_cycle;Max_cycle;Signal;HPM_P1;HPM_P2
2021/05/31 00:01:59;;;;;;;7.13;3.35;;;;;;;12.22;59.19;100871.00;20897642;28;20175;-77
2021/05/31 00:12:02;;;;;;;6.50;3.08;;;;;;;12.00;60.70;100862.56;20829185;28;20041;-77
2021/05/31 00:22:04;;;;;;;7.15;3.40;;;;;;;11.73;62.99;100861.41;20875630;28;20453;-77
2021/05/31 00:32:06;;;;;;;7.40;3.00;;;;;;;11.62;63.37;100854.03;20897299;28;20046;-77
2021/05/31 00:42:08;;;;;;;6.50;3.38;;;;;;;11.38;65.67;100845.63;20827774;28;20458;-77
2021/05/31 00:52:10;;;;;;;8.52;3.35;;;;;;;10.70;68.57;100839.41;20848680;28;20580;-77
2021/05/31 01:02:13;;;;;;;7.63;3.58;;;;;;;10.50;69.65;100834.25;20841462;28;20041;-76
2021/05/31 01:12:38;;;;;;;9.43;4.10;;;;;;;10.87;66.88;100835.13;20825229;28;20047;-76
2021/05/31 01:22:44;;;;;;;5.72;3.33;;;;;;;10.89;66.11;100828.03;20885931;28;20041;-77
2021/05/31 01:32:50;;;;;;;8.40;3.50;;;;;;;10.73;66.41;100828.75;20896102;28;20049;-76
2021/05/31 01:42:53;;;;;;;5.85;3.38;;;;;;;10.58;66.77;100815.56;20903984;28;20579;-76
2021/05/31 01:52:56;;;;;;;8.18;3.40;;;;;;;10.29;67.70;100817.78;20866001;28;20049;-77
2021/05/31 02:02:58;;;;;;;7.40;3.75;;;;;;;10.32;66.94;100816.78;20836675;28;20123;-76
2021/05/31 02:13:03;;;;;;;6.90;3.55;;;;;;;10.37;66.38;100811.34;20821572;28;20094;-77
2021/05/31 02:23:08;;;;;;;7.45;3.53;;;;;;;10.34;66.50;100807.09;20841969;28;20487;-77
2021/05/31 02:33:10;;;;;;;7.50;3.60;;;;;;;10.25;66.47;100803.16;20834632;28;20050;-77
2021/05/31 02:43:12;;;;;;;8.25;3.75;;;;;;;10.10;66.95;100798.59;20818274;28;20103;-77
2021/05/31 02:53:14;;;;;;;6.85;3.47;;;;;;;10.05;67.57;100802.34;20884927;28;20045;-77
2021/05/31 03:03:16;;;;;;;9.63;3.30;;;;;;;9.89;68.05;100789.09;20875254;28;20099;-76
2021/05/31 03:13:17;;;;;;;8.20;3.78;;;;;;;9.63;70.21;100792.88;20818252;28;20053;-77
2021/05/31 03:23:19;;;;;;;10.30;5.05;;;;;;;9.34;72.17;100802.00;20857051;28;20057;-77
2021/05/31 03:33:25;;;;;;;7.43;3.60;;;;;;;9.21;71.47;100798.19;20866937;28;20467;-76
2021/05/31 03:43:27;;;;;;;5.82;3.08;;;;;;;9.26;71.27;100805.81;20913415;28;20442;-77
2021/05/31 03:53:29;;;;;;;8.05;3.40;;;;;;;9.23;70.71;100812.03;20869120;28;20178;-76
2021/05/31 04:03:31;;;;;;;7.47;3.40;;;;;;;9.27;70.27;100811.00;20864624;28;20049;-77
2021/05/31 04:13:33;;;;;;;9.20;3.60;;;;;;;9.44;69.38;100818.13;20913154;28;20099;-76
2021/05/31 04:23:35;;;;;;;7.55;3.15;;;;;;;9.61;69.24;100825.22;20911715;28;20045;-76
2021/05/31 04:33:37;;;;;;;7.28;3.22;;;;;;;11.77;61.07;100836.69;20881987;28;20557;-77
2021/05/31 04:43:39;;;;;;;7.57;3.33;;;;;;;12.41;58.05;100829.69;20829317;28;20068;-76
2021/05/31 04:53:41;;;;;;;7.95;3.13;;;;;;;11.60;60.20;100842.78;20891934;28;20041;-77
2021/05/31 05:03:43;;;;;;;6.70;3.08;;;;;;;11.00;62.40;100839.69;20879685;28;20454;-76
2021/05/31 05:13:45;;;;;;;6.60;3.10;;;;;;;11.19;62.10;100849.25;20825052;28;20049;-77
2021/05/31 05:23:51;;;;;;;9.10;2.95;;;;;;;11.30;60.78;100850.41;20862437;28;20052;-77
2021/05/31 05:34:07;;;;;;;8.43;2.92;;;;;;;11.65;59.67;100848.63;20896144;28;20131;-77
2021/05/31 05:54:11;;;;;;;5.75;3.15;;;;;;;11.87;59.02;100843.16;20912613;28;20052;-77
2021/05/31 06:04:13;;;;;;;8.50;3.03;;;;;;;11.99;58.66;100850.34;20853859;28;20071;-77
2021/05/31 06:14:15;;;;;;;5.95;2.83;;;;;;;12.32;57.73;100850.34;20858544;28;20132;-77
2021/05/31 06:24:17;;;;;;;6.03;2.85;;;;;;;12.56;57.47;100848.16;20894261;28;20511;-77
2021/05/31 06:34:19;;;;;;;9.80;3.03;;;;;;;12.85;58.13;100853.47;20922817;28;20919;-77
2021/05/31 06:44:22;;;;;;;7.63;2.53;;;;;;;13.28;56.12;100851.06;20924376;28;20053;-77
2021/05/31 06:54:25;;;;;;;8.82;2.97;;;;;;;13.60;55.25;100846.53;20919873;28;20084;-77
2021/05/31 07:04:27;;;;;;;7.55;3.05;;;;;;;13.87;54.18;100844.00;20908402;28;20056;-77
2021/05/31 07:14:37;;;;;;;7.57;2.45;;;;;;;14.12;52.62;100846.84;20927905;28;20107;-77
2021/05/31 07:24:39;;;;;;;5.38;2.60;;;;;;;14.64;53.82;100833.06;20914845;28;20407;-77
2021/05/31 07:34:41;;;;;;;7.75;2.60;;;;;;;15.07;50.63;100839.03;20892710;28;20387;-77
2021/05/31 07:44:44;;;;;;;7.72;2.40;;;;;;;15.46;49.42;100836.38;20908852;28;20041;-76
2021/05/31 07:54:47;;;;;;;5.60;2.22;;;;;;;15.71;47.16;100825.03;20911039;28;20045;-77
2021/05/31 08:04:49;;;;;;;6.38;2.58;;;;;;;16.21;44.59;100821.50;20892682;28;20128;-77
2021/05/31 08:14:51;;;;;;;3.58;2.13;;;;;;;16.81;43.11;100805.69;20868573;28;20075;-77
2021/05/31 08:24:53;;;;;;;4.90;2.33;;;;;;;17.19;40.09;100812.59;20907017;28;20053;-77
2021/05/31 08:34:56;;;;;;;5.85;1.92;;;;;;;17.43;39.07;100800.13;20883960;28;20147;-77
2021/05/31 08:44:58;;;;;;;4.53;2.13;;;;;;;17.53;40.19;100807.25;20867087;28;20095;-77
2021/05/31 08:55:00;;;;;;;4.07;2.20;;;;;;;17.82;39.10;100813.00;20898079;28;20117;-77
2021/05/31 09:05:06;;;;;;;4.00;2.00;;;;;;;18.07;38.26;100797.81;20880413;28;20048;-77
2021/05/31 09:15:11;;;;;;;6.22;2.00;;;;;;;18.50;35.63;100796.06;20863818;28;20099;-78
2021/05/31 09:25:32;;;;;;;6.33;1.93;;;;;;;18.60;37.33;100791.75;20908299;28;20049;-78
2021/05/31 09:35:42;;;;;;;4.25;1.80;;;;;;;18.98;36.96;100785.94;20879248;28;20111;-78
2021/05/31 09:45:48;;;;;;;6.10;2.72;;;;;;;19.25;34.93;100782.78;20860683;28;20105;-77
2021/05/31 09:55:50;;;;;;;8.55;2.03;;;;;;;18.79;36.01;100770.69;20893492;28;20048;-77
2021/05/31 10:06:14;;;;;;;5.57;2.50;;;;;;;19.16;33.86;100775.59;20909710;28;20060;-78
2021/05/31 10:16:16;;;;;;;3.67;1.53;;;;;;;19.29;36.34;100757.69;20908918;28;20042;-77
2021/05/31 10:26:20;;;;;;;3.15;1.80;;;;;;;19.12;35.26;100782.13;20893591;28;20061;-77
2021/05/31 10:36:31;;;;;;;3.83;2.10;;;;;;;19.43;34.78;100765.31;20891037;28;20045;-77
2021/05/31 10:46:38;;;;;;;5.93;2.38;;;;;;;19.83;35.20;100760.09;20912208;28;20077;-77
2021/05/31 10:56:41;;;;;;;4.57;1.88;;;;;;;19.80;35.46;100743.59;20899789;28;20041;-78
2021/05/31 11:06:45;;;;;;;4.00;1.80;;;;;;;20.10;33.61;100748.00;20906566;28;20041;-77
2021/05/31 11:16:51;;;;;;;5.03;2.30;;;;;;;19.71;33.65;100752.34;20909838;28;20040;-77
2021/05/31 11:26:57;;;;;;;4.45;2.08;;;;;;;19.94;34.09;100743.22;20899727;28;20136;-79
2021/05/31 11:37:00;;;;;;;5.32;2.70;;;;;;;20.15;34.75;100737.81;20875788;28;20428;-79
2021/05/31 11:47:03;;;;;;;6.63;2.10;;;;;;;20.18;33.53;100719.75;20877481;28;20111;-79
2021/05/31 11:57:08;;;;;;;3.47;1.80;;;;;;;20.04;34.02;100720.16;20904379;28;20425;-79
2021/05/31 12:07:12;;;;;;;5.13;1.80;;;;;;;20.59;34.29;100709.91;20905046;28;20041;-80
2021/05/31 12:17:14;;;;;;;3.47;1.98;;;;;;;20.63;34.60;100692.69;20913844;28;20045;-80
2021/05/31 12:27:32;;;;;;;6.25;2.17;;;;;;;20.54;33.36;100690.88;20924586;28;20057;-79
2021/05/31 12:37:37;;;;;;;5.97;1.90;;;;;;;20.16;34.22;100668.56;20891821;28;20041;-79
2021/05/31 12:47:41;;;;;;;5.28;2.20;;;;;;;20.42;35.83;100676.88;20919416;28;20049;-79
2021/05/31 12:57:46;;;;;;;3.73;2.03;;;;;;;20.31;34.58;100677.03;20906285;28;20119;-79
2021/05/31 13:07:49;;;;;;;5.20;2.15;;;;;;;20.59;34.82;100659.38;20822766;28;20156;-79
2021/05/31 13:17:52;;;;;;;8.27;2.58;;;;;;;20.63;35.11;100642.16;20826129;28;20542;-79
2021/05/31 13:27:53;;;;;;;4.13;2.25;;;;;;;20.55;35.42;100637.53;20825651;28;20045;-79
2021/05/31 13:37:58;;;;;;;7.50;2.10;;;;;;;20.60;34.89;100614.03;20903330;28;20132;-79
2021/05/31 13:48:00;;;;;;;;;;;;;;;21.11;36.12;100596.81;20887300;28;20041;-79
2021/05/31 13:58:03;;;;;;;6.15;2.38;;;;;;;20.83;34.92;100617.19;20912742;28;19924;-79
2021/05/31 14:08:07;;;;;;;4.37;2.20;;;;;;;21.22;35.20;100602.81;20907196;28;20118;-79
2021/05/31 14:18:10;;;;;;;5.20;1.80;;;;;;;21.16;33.54;100591.91;20912189;28;20059;-79
2021/05/31 14:28:11;;;;;;;5.82;1.90;;;;;;;21.12;33.84;100577.19;20902144;28;20044;-80
2021/05/31 14:38:13;;;;;;;3.95;1.80;;;;;;;21.33;32.72;100578.66;20897525;28;20049;-80
2021/05/31 14:48:14;;;;;;;4.30;1.83;;;;;;;21.47;30.43;100576.50;20879693;28;20054;-78
2021/05/31 14:58:16;;;;;;;5.38;1.75;;;;;;;21.48;28.55;100554.19;20877861;28;20352;-79
2021/05/31 15:08:19;;;;;;;4.82;2.15;;;;;;;21.66;32.92;100569.22;20820888;28;20059;-79
2021/05/31 15:18:21;;;;;;;2.45;1.58;;;;;;;21.75;27.40;100564.81;20818030;28;20072;-78
2021/05/31 15:28:23;;;;;;;4.88;2.25;;;;;;;21.61;30.50;100558.19;20803960;28;20077;-79
2021/05/31 15:38:25;;;;;;;3.67;2.20;;;;;;;21.90;32.09;100539.31;20822382;28;20046;-79
2021/05/31 15:48:28;;;;;;;3.78;1.90;;;;;;;21.94;32.08;100534.56;20838333;28;20479;-78
2021/05/31 15:58:30;;;;;;;3.03;1.88;;;;;;;22.02;31.29;100530.13;20831646;28;20058;-79
2021/05/31 16:08:32;;;;;;;3.65;2.03;;;;;;;22.29;29.61;100523.03;20836957;28;20045;-79
2021/05/31 16:18:34;;;;;;;3.58;1.65;;;;;;;22.25;30.29;100524.31;20812548;28;20052;-79
2021/05/31 16:28:36;;;;;;;3.90;1.88;;;;;;;22.34;29.35;100520.72;20786309;28;20050;-79
2021/05/31 16:38:38;;;;;;;3.58;1.90;;;;;;;22.17;30.04;100520.59;20841161;28;20045;-80
2021/05/31 16:48:39;;;;;;;5.72;2.10;;;;;;;22.05;30.73;100499.66;20832602;28;20551;-79
2021/05/31 16:58:42;;;;;;;3.60;1.83;;;;;;;22.07;31.78;100509.19;20830517;28;20400;-80
2021/05/31 17:08:44;;;;;;;7.10;2.03;;;;;;;21.87;31.23;100504.97;20824496;28;20102;-80
2021/05/31 17:29:12;;;;;;;3.05;1.85;;;;;;;21.95;30.55;100491.75;20837795;28;20188;-78
2021/05/31 17:39:14;;;;;;;5.57;3.25;;;;;;;21.83;30.82;100487.63;20809036;28;20050;-77
2021/05/31 17:49:17;;;;;;;6.40;2.40;;;;;;;21.55;32.14;100486.00;20800092;28;20045;-77
2021/05/31 17:59:18;;;;;;;3.88;2.00;;;;;;;21.40;32.42;100488.34;20790686;28;20060;-77
2021/05/31 18:09:21;;;;;;;6.88;2.20;;;;;;;21.26;32.19;100483.53;20813758;28;20569;-77
2021/05/31 18:19:23;;;;;;;4.20;2.30;;;;;;;21.04;33.12;100475.91;20821302;28;20050;-77
2021/05/31 18:29:25;;;;;;;3.92;2.20;;;;;;;20.81;34.25;100467.50;20812803;28;20500;-77
2021/05/31 18:39:26;;;;;;;6.97;2.63;;;;;;;20.30;35.10;100466.13;20824283;28;20053;-77
2021/05/31 18:49:28;;;;;;;7.90;2.63;;;;;;;19.70;36.50;100471.78;20798583;28;20104;-78
2021/05/31 18:59:30;;;;;;;3.78;1.88;;;;;;;19.26;37.71;100473.91;20805549;28;20092;-77
2021/05/31 19:09:32;;;;;;;4.43;1.90;;;;;;;18.91;39.53;100479.69;20806628;28;20037;-77
2021/05/31 19:19:34;;;;;;;4.53;2.50;;;;;;;18.57;40.88;100473.00;20818623;28;20053;-77
2021/05/31 19:29:38;;;;;;;5.80;2.40;;;;;;;18.19;41.79;100482.38;20806652;28;20049;-77
2021/05/31 19:39:40;;;;;;;4.35;2.45;;;;;;;17.85;43.19;100489.66;20817847;28;20562;-77
2021/05/31 19:49:42;;;;;;;5.47;2.85;;;;;;;17.68;43.64;100495.50;20813197;28;20049;-77
2021/05/31 19:59:49;;;;;;;4.95;2.20;;;;;;;17.29;44.82;100504.00;20825326;28;20056;-77
2021/05/31 20:09:53;;;;;;;4.82;2.47;;;;;;;17.14;45.37;100502.59;20812731;28;20045;-78
2021/05/31 20:19:55;;;;;;;4.32;2.28;;;;;;;17.03;45.56;100504.28;20802972;28;20042;-78
2021/05/31 20:29:57;;;;;;;5.38;2.60;;;;;;;16.68;46.60;100499.13;20810726;28;20100;-77
2021/05/31 20:39:59;;;;;;;6.07;2.63;;;;;;;16.42;47.91;100502.06;20789656;28;20069;-77
2021/05/31 20:50:05;;;;;;;6.82;3.63;;;;;;;16.11;48.97;100504.41;20804679;28;20045;-77
2021/05/31 21:00:17;;;;;;;6.43;2.20;;;;;;;15.92;49.75;100501.47;20798237;28;20065;-77
2021/05/31 21:10:22;;;;;;;4.78;2.58;;;;;;;15.71;50.42;100495.13;20804762;28;20053;-77
2021/05/31 21:20:27;;;;;;;6.03;2.70;;;;;;;15.50;51.55;100486.97;20805398;28;20510;-77
2021/05/31 21:30:29;;;;;;;6.33;3.27;;;;;;;15.31;52.23;100498.03;20779462;28;20384;-77
2021/05/31 21:40:32;;;;;;;5.90;3.50;;;;;;;15.13;53.54;100485.31;20798907;28;20053;-77
2021/05/31 21:50:34;;;;;;;5.03;3.10;;;;;;;14.83;54.09;100486.53;20810370;28;20051;-77
2021/05/31 22:00:42;;;;;;;5.25;2.67;;;;;;;14.64;54.79;100494.03;20790067;28;20050;-78
2021/05/31 22:10:49;;;;;;;5.13;2.72;;;;;;;14.45;55.37;100486.59;20782464;28;20129;-77
2021/05/31 22:20:51;;;;;;;5.50;2.75;;;;;;;14.25;55.99;100494.13;20779288;28;20104;-78
2021/05/31 22:30:55;;;;;;;4.40;2.50;;;;;;;14.04;57.37;100489.34;20792004;28;20096;-77
2021/05/31 23:22:11;;;;;;;6.75;3.35;;;;;;;12.91;63.85;100478.34;20797748;28;20055;-77
2021/05/31 23:32:12;;;;;;;6.28;3.15;;;;;;;12.81;64.04;100478.94;20787359;28;20046;-77
2021/05/31 23:42:15;;;;;;;5.32;3.08;;;;;;;12.62;64.30;100470.50;20809980;28;20049;-77
2021/05/31 23:52:17;;;;;;;5.72;3.17;;;;;;;12.49;65.97;100469.59;20806234;28;20046;-77
